Pride Of Bruges — PGJW — position and weather

sailwx.info

Track history (hours):
 
Tides and Currents Weather Stations Pressure Air Temp Water Temp Dewpoint Dewpoint Depression Visibility Wind Speed Wind Dir Waves Ship Positions

Pride Of Bruges

Operator: P&O Ferries

Last reported at 2017-Jun-23 17:00 UTC. Time now 2017-Jun-23 17:24 UTC.
Position N 51°33' E 003°07'.

Length 180 m; draft 5.4 m.

Type: Passenger vessel. MMSI: 244387000.

Date/timePositionNaut miles runAvg speedWind from/ knotsBaromVisibWave heightAir tempDewpointWater temp
2017-Jun-23 17:00N 51°33' E 003°07'612.3
2017-Jun-23 16:30N 51°39' E 003°11'612.2
2017-Jun-23 16:00N 51°44' E 003°14'612.2
2017-Jun-23 15:29N 51°50' E 003°18'1427.6
2017-Jun-23 14:59N 52°03' E 003°28'0 0.0
2017-Jun-23 13:59N 52°03' E 003°28'712.7
2017-Jun-23 13:24N 52°03' E 003°40'4 9.1
2017-Jun-23 13:00N 52°02' E 003°46'510.3
2017-Jun-23 12:30N 52°03' E 003°54'4 7.8
2017-Jun-23 12:00N 52°01' E 003°60'510.4
2017-Jun-23 11:30N 51°59' E 004°07'5 9.8
2017-Jun-23 11:00N 51°56' E 004°14'4 7.1
2017-Jun-23 10:30N 51°53' E 004°18'0 0.1
2017-Jun-23 10:00N 51°53' E 004°18'0 0.0
2017-Jun-23 09:29N 51°53' E 004°18'0 0.0
2017-Jun-23 08:59N 51°53' E 004°18'0 0.0
2017-Jun-23 08:30N 51°53' E 004°18'0 0.0
2017-Jun-23 07:59N 51°53' E 004°18'0 0.0
2017-Jun-23 07:30N 51°53' E 004°18'0 0.0
2017-Jun-23 07:00N 51°53' E 004°18'0 0.0
2017-Jun-23 06:30N 51°53' E 004°18'0 0.0
2017-Jun-23 06:00N 51°53' E 004°18'0 0.0
2017-Jun-23 05:30N 51°53' E 004°18'0 0.0
2017-Jun-23 05:00N 51°53' E 004°18'0 0.0
2017-Jun-23 04:30N 51°53' E 004°18'0 0.0
2017-Jun-23 04:00N 51°53' E 004°18'0 0.0
2017-Jun-23 03:30N 51°53' E 004°18'0 0.0
2017-Jun-23 03:00N 51°53' E 004°18'0 0.0
2017-Jun-23 02:30N 51°53' E 004°18'0 0.0
2017-Jun-23 02:00N 51°53' E 004°18'0 0.0
2017-Jun-23 01:30N 51°53' E 004°18'0 0.0
2017-Jun-23 01:00N 51°53' E 004°18'0 0.0
2017-Jun-23 00:30N 51°53' E 004°18'0 0.0
2017-Jun-23 00:00N 51°53' E 004°18'0 0.0
2017-Jun-22 23:29N 51°53' E 004°18'0 0.0
2017-Jun-22 23:00N 51°53' E 004°18'0 0.0
2017-Jun-22 22:30N 51°53' E 004°18'0 0.0
2017-Jun-22 22:00N 51°53' E 004°18'0 0.0
2017-Jun-22 21:30N 51°53' E 004°18'0 0.0
2017-Jun-22 21:00N 51°53' E 004°18'0 0.0
2017-Jun-22 20:30N 51°53' E 004°18'0 0.0
2017-Jun-22 20:00N 51°53' E 004°18'0 0.0
2017-Jun-22 19:29N 51°53' E 004°18'0 0.0
2017-Jun-22 19:00N 51°53' E 004°18'0 0.0
2017-Jun-22 18:30N 51°53' E 004°18'0 0.0
2017-Jun-22 18:00N 51°53' E 004°18'0 0.0
2017-Jun-22 17:30N 51°53' E 004°18'0 0.0
2017-Jun-22 16:59N 51°53' E 004°18'0 0.0
2017-Jun-22 16:30N 51°53' E 004°18'0 0.0
2017-Jun-22 16:00N 51°53' E 004°18'0 0.0
2017-Jun-22 15:30N 51°53' E 004°18'0 0.0
2017-Jun-22 14:59N 51°53' E 004°18'0 0.0
2017-Jun-22 13:59N 51°53' E 004°18'0 0.0
2017-Jun-22 13:30N 51°53' E 004°18'0 0.0
2017-Jun-22 13:00N 51°53' E 004°18'0 0.0
2017-Jun-22 12:30N 51°53' E 004°18'0 0.0
2017-Jun-22 12:00N 51°53' E 004°18'0 0.0
2017-Jun-22 11:30N 51°53' E 004°18'0 0.0
2017-Jun-22 11:00N 51°53' E 004°18'0 0.0
2017-Jun-22 10:30N 51°53' E 004°18'0 0.0
2017-Jun-22 10:00N 51°53' E 004°18'0 0.0
2017-Jun-22 09:30N 51°53' E 004°18'0 0.0
2017-Jun-22 09:00N 51°53' E 004°18'0 0.0
2017-Jun-22 08:30N 51°53' E 004°18'0 0.0
2017-Jun-22 08:00N 51°53' E 004°18'0 0.0
2017-Jun-22 07:30N 51°53' E 004°18'0 0.0
2017-Jun-22 07:00N 51°53' E 004°18'0 0.0
2017-Jun-22 06:30N 51°53' E 004°18'0 0.0
2017-Jun-22 06:00N 51°53' E 004°18'0 0.0
2017-Jun-22 05:30N 51°53' E 004°18'0 0.0
2017-Jun-22 05:00N 51°53' E 004°18'0 0.0
2017-Jun-22 04:30N 51°53' E 004°18'0 0.0
2017-Jun-22 04:00N 51°53' E 004°18'0 0.0
2017-Jun-22 03:30N 51°53' E 004°18'0 0.0
2017-Jun-22 03:00N 51°53' E 004°18'0 0.0
2017-Jun-22 02:30N 51°53' E 004°18'0 0.0
2017-Jun-22 02:00N 51°53' E 004°18'0 0.0
2017-Jun-22 01:30N 51°53' E 004°18'0 0.0
2017-Jun-22 01:00N 51°53' E 004°18'0 0.0
2017-Jun-22 00:30N 51°53' E 004°18'0 0.0
2017-Jun-22 00:00N 51°53' E 004°18'0 0.0
2017-Jun-21 23:30N 51°53' E 004°18'0 0.0
2017-Jun-21 23:00N 51°53' E 004°18'0 0.0
2017-Jun-21 22:30N 51°53' E 004°18'0 0.0
2017-Jun-21 22:00N 51°53' E 004°18'0 0.0
2017-Jun-21 21:30N 51°53' E 004°18'0 0.0
2017-Jun-21 21:00N 51°53' E 004°18'0 0.0
2017-Jun-21 20:30N 51°53' E 004°18'0 0.0
2017-Jun-21 20:00N 51°53' E 004°18'0 0.0
2017-Jun-21 19:30N 51°53' E 004°18'0 0.0
2017-Jun-21 19:00N 51°53' E 004°18'0 0.0
2017-Jun-21 18:30N 51°53' E 004°18'0 0.0
2017-Jun-21 18:00N 51°53' E 004°18'0 0.0
2017-Jun-21 17:30N 51°53' E 004°18'0 0.0
2017-Jun-21 17:00N 51°53' E 004°18'0 0.0
2017-Jun-21 16:30N 51°53' E 004°18'0 0.0
2017-Jun-21 16:00N 51°53' E 004°18'0 0.0
2017-Jun-21 15:30N 51°53' E 004°18'0 0.0
2017-Jun-21 15:00N 51°53' E 004°18'0 0.0
2017-Jun-21 14:30N 51°53' E 004°18'0 0.0
2017-Jun-21 13:30N 51°53' E 004°18'0 0.0
2017-Jun-21 13:00N 51°53' E 004°18'0 0.0
2017-Jun-21 12:30N 51°53' E 004°18'0 0.0
2017-Jun-21 12:00N 51°53' E 004°18'0 0.0
2017-Jun-21 11:30N 51°53' E 004°18'0 0.0
2017-Jun-21 11:00N 51°53' E 004°18'0 0.0
2017-Jun-21 10:30N 51°53' E 004°18'0 0.0
2017-Jun-21 10:00N 51°53' E 004°18'0 0.0
2017-Jun-21 09:30N 51°53' E 004°18'0 0.0
2017-Jun-21 09:00N 51°53' E 004°18'0 0.0
2017-Jun-21 08:30N 51°53' E 004°18'0 0.0
2017-Jun-21 08:00N 51°53' E 004°18'0 0.0
2017-Jun-21 07:30N 51°53' E 004°18'0 0.0
2017-Jun-21 07:00N 51°53' E 004°18'0 0.0
2017-Jun-21 06:30N 51°53' E 004°18'0 0.0
2017-Jun-21 06:00N 51°53' E 004°18'0 0.0
2017-Jun-21 05:30N 51°53' E 004°18'0 0.0
2017-Jun-21 05:00N 51°53' E 004°18'0 0.0
2017-Jun-21 04:30N 51°53' E 004°18'0 0.0
2017-Jun-21 04:00N 51°53' E 004°18'0 0.0
2017-Jun-21 03:30N 51°53' E 004°18'0 0.0
2017-Jun-21 03:00N 51°53' E 004°18'0 0.0
2017-Jun-21 02:30N 51°53' E 004°18'0 0.0
2017-Jun-21 02:00N 51°53' E 004°18'0 0.0
2017-Jun-21 01:30N 51°53' E 004°18'0 0.0
2017-Jun-21 01:00N 51°53' E 004°18'0 0.0
2017-Jun-21 00:30N 51°53' E 004°18'0 0.0
2017-Jun-21 00:00N 51°53' E 004°18'0 0.0
2017-Jun-20 23:30N 51°53' E 004°18'0 0.0
2017-Jun-20 23:00N 51°53' E 004°18'0 0.0
2017-Jun-20 22:30N 51°53' E 004°18'0 0.0
2017-Jun-20 22:00N 51°53' E 004°18'0 0.0
2017-Jun-20 21:30N 51°53' E 004°18'0 0.0
2017-Jun-20 21:00N 51°53' E 004°18'0 0.0
2017-Jun-20 20:30N 51°53' E 004°18'0 0.0
2017-Jun-20 20:00N 51°53' E 004°18'0 0.0
2017-Jun-20 19:30N 51°53' E 004°18'0 0.0
2017-Jun-20 19:00N 51°53' E 004°18'0 0.0
2017-Jun-20 18:30N 51°53' E 004°18'0 0.0
2017-Jun-20 18:00N 51°53' E 004°18'0 0.0
2017-Jun-20 17:30N 51°53' E 004°18'0 0.0
2017-Jun-20 17:00N 51°53' E 004°18'0 0.0
2017-Jun-20 16:30N 51°53' E 004°18'0 0.0
2017-Jun-20 16:00N 51°53' E 004°18'0 0.0
2017-Jun-20 15:30N 51°53' E 004°18'0 0.0
2017-Jun-20 15:00N 51°53' E 004°18'0 0.0
2017-Jun-20 14:30N 51°53' E 004°18'0 0.0
2017-Jun-20 13:30N 51°53' E 004°18'0 0.0
2017-Jun-20 13:00N 51°53' E 004°18'0 0.0
2017-Jun-20 12:30N 51°53' E 004°18'0 0.0
2017-Jun-20 12:00N 51°53' E 004°18'0 0.0
2017-Jun-20 11:30N 51°53' E 004°18'0 0.0
2017-Jun-20 11:00N 51°53' E 004°18'0 0.0
2017-Jun-20 10:30N 51°53' E 004°18'0 0.0
2017-Jun-20 10:00N 51°53' E 004°18'0 0.0
2017-Jun-20 09:30N 51°53' E 004°18'0 0.0
2017-Jun-20 09:00N 51°53' E 004°18'0 0.0
2017-Jun-20 08:30N 51°53' E 004°18'0 0.0
2017-Jun-20 08:00N 51°53' E 004°18'0 0.0
2017-Jun-20 07:30N 51°53' E 004°18'0 0.0
2017-Jun-20 07:00N 51°53' E 004°18'0 0.0
2017-Jun-20 06:30N 51°53' E 004°18'0 0.0
2017-Jun-20 06:00N 51°53' E 004°18'0 0.0
2017-Jun-20 05:30N 51°53' E 004°18'0 0.0
2017-Jun-20 05:00N 51°53' E 004°18'0 0.0
2017-Jun-20 04:30N 51°53' E 004°18'0 0.0
2017-Jun-20 04:00N 51°53' E 004°18'0 0.0
2017-Jun-20 03:30N 51°53' E 004°18'0 0.0
2017-Jun-20 03:00N 51°53' E 004°18'0 0.0
2017-Jun-20 02:30N 51°53' E 004°18'0 0.0
2017-Jun-20 02:00N 51°53' E 004°18'0 0.0
2017-Jun-20 01:30N 51°53' E 004°18'0 0.0
2017-Jun-20 01:00N 51°53' E 004°18'0 0.0
2017-Jun-20 00:30N 51°53' E 004°18'0 0.0
2017-Jun-20 00:00N 51°53' E 004°18'0 0.0
2017-Jun-19 23:30N 51°53' E 004°18'0 0.0
2017-Jun-19 23:00N 51°53' E 004°18'0 0.0
2017-Jun-19 22:30N 51°53' E 004°18'0 0.0
2017-Jun-19 22:00N 51°53' E 004°18'0 0.0
2017-Jun-19 21:30N 51°53' E 004°18'0 0.0
2017-Jun-19 21:00N 51°53' E 004°18'0 0.0
2017-Jun-19 20:30N 51°53' E 004°18'0 0.0
2017-Jun-19 20:00N 51°53' E 004°18'0 0.0
2017-Jun-19 19:30N 51°53' E 004°18'0 0.0
2017-Jun-19 19:00N 51°53' E 004°18'0 0.0
2017-Jun-19 18:30N 51°53' E 004°18'0 0.0
2017-Jun-19 18:00N 51°53' E 004°18'0 0.0
2017-Jun-19 17:30N 51°53' E 004°18'0 0.0
2017-Jun-19 17:00N 51°53' E 004°18'0 0.0
2017-Jun-19 16:30N 51°53' E 004°18'0 0.0
2017-Jun-19 16:00N 51°53' E 004°18'0 0.0
2017-Jun-19 15:30N 51°53' E 004°18'0 0.0
2017-Jun-19 15:00N 51°53' E 004°18'0 0.0
2017-Jun-19 14:30N 51°53' E 004°18'0 0.0
2017-Jun-19 13:30N 51°53' E 004°18'0 0.0
2017-Jun-19 13:00N 51°53' E 004°18'0 0.0
2017-Jun-19 12:30N 51°53' E 004°18'0 0.0
2017-Jun-19 12:00N 51°53' E 004°18'0 0.0
2017-Jun-19 11:30N 51°53' E 004°18'0 0.0
2017-Jun-19 11:00N 51°53' E 004°18'0 0.0
2017-Jun-19 10:30N 51°53' E 004°18'0 0.0
2017-Jun-19 10:00N 51°53' E 004°18'0 0.0
2017-Jun-19 09:30N 51°53' E 004°18'0 0.0
2017-Jun-19 09:01N 51°53' E 004°18'0 0.0
2017-Jun-19 08:30N 51°53' E 004°18'0 0.0
2017-Jun-19 08:00N 51°53' E 004°18'0 0.0
2017-Jun-19 07:30N 51°53' E 004°18'0 0.0
2017-Jun-19 07:00N 51°53' E 004°18'0 0.0
2017-Jun-19 06:30N 51°53' E 004°18'0 0.0
2017-Jun-19 06:00N 51°53' E 004°18'0 0.0
2017-Jun-19 05:30N 51°53' E 004°18'0 0.0
2017-Jun-19 05:00N 51°53' E 004°18'0 0.0
2017-Jun-19 04:29N 51°53' E 004°18'0 0.0
2017-Jun-19 04:00N 51°53' E 004°18'0 0.0
2017-Jun-19 03:30N 51°53' E 004°18'0 0.0
2017-Jun-19 03:00N 51°53' E 004°18'0 0.0
2017-Jun-19 02:30N 51°53' E 004°18'0 0.0
2017-Jun-19 02:00N 51°53' E 004°18'0 0.0
2017-Jun-19 01:00N 51°53' E 004°18'0 0.0
2017-Jun-19 00:30N 51°53' E 004°18'0 0.0
2017-Jun-19 00:00N 51°53' E 004°18'0 0.0
2017-Jun-18 23:30N 51°53' E 004°18'0 0.0
2017-Jun-18 23:00N 51°53' E 004°18'0 0.0
2017-Jun-18 22:29N 51°53' E 004°18'0 0.0
2017-Jun-18 22:00N 51°53' E 004°18'0 0.0
2017-Jun-18 21:30N 51°53' E 004°18'0 0.0
2017-Jun-18 21:00N 51°53' E 004°18'0 0.0
2017-Jun-18 20:30N 51°53' E 004°18'0 0.0
2017-Jun-18 20:00N 51°53' E 004°18'0 0.0
2017-Jun-18 19:29N 51°53' E 004°18'0 0.0
2017-Jun-18 19:00N 51°53' E 004°18'0 0.0
2017-Jun-18 18:30N 51°53' E 004°18'0 0.0
2017-Jun-18 18:00N 51°53' E 004°18'0 0.0
2017-Jun-18 17:30N 51°53' E 004°18'0 0.0
2017-Jun-18 17:00N 51°53' E 004°18'0 0.0
2017-Jun-18 16:29N 51°53' E 004°18'0 0.0
2017-Jun-18 16:00N 51°53' E 004°18'0 0.0
2017-Jun-18 15:30N 51°53' E 004°18'0 0.0
2017-Jun-18 15:00N 51°53' E 004°18'0 0.0
2017-Jun-18 14:00N 51°53' E 004°18'0 0.0
2017-Jun-18 13:30N 51°53' E 004°18'0 0.0
2017-Jun-18 13:00N 51°53' E 004°18'0 0.0
2017-Jun-18 12:29N 51°53' E 004°18'0 0.0
2017-Jun-18 12:00N 51°53' E 004°18'0 0.0
2017-Jun-18 11:30N 51°53' E 004°18'0 0.0
2017-Jun-18 11:00N 51°53' E 004°18'0 0.0
2017-Jun-18 10:30N 51°53' E 004°18'0 0.0
2017-Jun-18 09:59N 51°53' E 004°18'0 0.0
2017-Jun-18 09:30N 51°53' E 004°18'0 0.0
2017-Jun-18 09:00N 51°53' E 004°18'0 0.0
2017-Jun-18 08:30N 51°53' E 004°18'0 0.0
2017-Jun-18 08:00N 51°53' E 004°18'0 0.0
2017-Jun-18 07:29N 51°53' E 004°18'0 0.0
2017-Jun-18 07:00N 51°53' E 004°18'0 0.0
2017-Jun-18 06:30N 51°53' E 004°18'0 0.0
2017-Jun-18 06:00N 51°53' E 004°18'0 0.0
2017-Jun-18 05:30N 51°53' E 004°18'0 0.0
2017-Jun-18 05:00N 51°53' E 004°18'0 0.0
2017-Jun-18 04:30N 51°53' E 004°18'0 0.0
2017-Jun-18 04:00N 51°53' E 004°18'0 0.0
2017-Jun-18 03:30N 51°53' E 004°18'0 0.0
2017-Jun-18 03:00N 51°53' E 004°18'0 0.0
2017-Jun-18 02:30N 51°53' E 004°18'0 0.0
2017-Jun-18 02:00N 51°53' E 004°18'0 0.0
2017-Jun-18 01:30N 51°53' E 004°18'0 0.0
2017-Jun-18 01:00N 51°53' E 004°18'0 0.0
2017-Jun-18 00:30N 51°53' E 004°18'0 0.0
2017-Jun-18 00:00N 51°53' E 004°18'0 0.0
2017-Jun-17 23:30N 51°53' E 004°18'0 0.0
2017-Jun-17 23:00N 51°53' E 004°18'0 0.0
2017-Jun-17 22:31N 51°53' E 004°18'0 0.0
2017-Jun-17 22:00N 51°53' E 004°18'0 0.0
2017-Jun-17 21:30N 51°53' E 004°18'0 0.0
2017-Jun-17 21:00N 51°53' E 004°18'0 0.0
2017-Jun-17 20:30N 51°53' E 004°18'0 0.0
2017-Jun-17 20:00N 51°53' E 004°18'0 0.0
2017-Jun-17 19:30N 51°53' E 004°18'0 0.0
2017-Jun-17 19:00N 51°53' E 004°18'0 0.0
2017-Jun-17 18:30N 51°53' E 004°18'0 0.0
2017-Jun-17 18:00N 51°53' E 004°18'0 0.0
2017-Jun-17 17:30N 51°53' E 004°18'0 0.0
2017-Jun-17 17:00N 51°53' E 004°18'0 0.0
2017-Jun-17 16:30N 51°53' E 004°18'0 0.0
2017-Jun-17 15:59N 51°53' E 004°18'0 0.0
2017-Jun-17 15:30N 51°53' E 004°18'0 0.0
2017-Jun-17 15:00N 51°53' E 004°18'0 0.0
2017-Jun-17 14:30N 51°53' E 004°18'0 0.0
2017-Jun-17 13:30N 51°53' E 004°18'0 0.0
2017-Jun-17 13:00N 51°53' E 004°18'0 0.0
2017-Jun-17 12:30N 51°53' E 004°18'0 0.0
2017-Jun-17 12:00N 51°53' E 004°18'0 0.0
2017-Jun-17 11:30N 51°53' E 004°18'0 0.0
2017-Jun-17 11:00N 51°53' E 004°18'0 0.0
2017-Jun-17 10:30N 51°53' E 004°18'0 0.0
2017-Jun-17 10:00N 51°53' E 004°18'0 0.0
2017-Jun-17 09:30N 51°53' E 004°18'0 0.0
2017-Jun-17 09:00N 51°53' E 004°18'0 0.0
2017-Jun-17 08:30N 51°53' E 004°18'0 0.0
2017-Jun-17 08:00N 51°53' E 004°18'0 0.0
2017-Jun-17 07:30N 51°53' E 004°18'0 0.0
2017-Jun-17 07:00N 51°53' E 004°18'0 0.0
2017-Jun-17 06:30N 51°53' E 004°18'0 0.0
2017-Jun-17 06:00N 51°53' E 004°18'0 0.0
2017-Jun-17 05:30N 51°53' E 004°18'0 0.0
2017-Jun-17 05:00N 51°53' E 004°18'0 0.0
2017-Jun-17 04:30N 51°53' E 004°18'0 0.0
2017-Jun-17 04:00N 51°53' E 004°18'0 0.0
2017-Jun-17 03:30N 51°53' E 004°18'0 0.0
2017-Jun-17 03:00N 51°53' E 004°18'0 0.0
2017-Jun-17 02:30N 51°53' E 004°18'0 0.0
2017-Jun-17 02:00N 51°53' E 004°18'0 0.0
2017-Jun-17 01:30N 51°53' E 004°18'0 0.0
2017-Jun-17 01:00N 51°53' E 004°18'0 0.0
2017-Jun-17 00:30N 51°53' E 004°18'0 0.0
2017-Jun-17 00:00N 51°53' E 004°18'0 0.0
2017-Jun-16 23:30N 51°53' E 004°18'0 0.0
2017-Jun-16 23:00N 51°53' E 004°18'0 0.0
2017-Jun-16 22:30N 51°53' E 004°18'0 0.0
2017-Jun-16 22:00N 51°53' E 004°18'0 0.0
2017-Jun-16 21:30N 51°53' E 004°18'0 0.0
2017-Jun-16 21:00N 51°53' E 004°18'0 0.0
2017-Jun-16 20:30N 51°53' E 004°18'0 0.0
2017-Jun-16 20:00N 51°53' E 004°18'0 0.0
2017-Jun-16 19:30N 51°53' E 004°18'0 0.0
2017-Jun-16 19:00N 51°53' E 004°18'0 0.0
2017-Jun-16 18:30N 51°53' E 004°18'0 0.0
2017-Jun-16 18:00N 51°53' E 004°18'0 0.0
2017-Jun-16 17:30N 51°53' E 004°18'0 0.0
2017-Jun-16 17:00N 51°53' E 004°18'0 0.0
2017-Jun-16 16:30N 51°53' E 004°18'0 0.0
2017-Jun-16 16:00N 51°53' E 004°18'0 0.0
2017-Jun-16 15:30N 51°53' E 004°18'0 0.0
2017-Jun-16 15:00N 51°53' E 004°18'0 0.0
2017-Jun-16 14:30N 51°53' E 004°18'0 0.0
2017-Jun-16 13:30N 51°53' E 004°18'0 0.0
2017-Jun-16 13:00N 51°53' E 004°18'0 0.0
2017-Jun-16 12:30N 51°53' E 004°18'0 0.0
2017-Jun-16 12:00N 51°53' E 004°18'0 0.0
2017-Jun-16 11:30N 51°53' E 004°18'0 0.0
2017-Jun-16 11:00N 51°53' E 004°18'0 0.0
2017-Jun-16 10:30N 51°53' E 004°18'0 0.0
2017-Jun-16 10:00N 51°53' E 004°18'0 0.0
2017-Jun-16 09:30N 51°53' E 004°18'0 0.0
2017-Jun-16 09:00N 51°53' E 004°18'0 0.0
2017-Jun-16 08:30N 51°53' E 004°18'0 0.0
2017-Jun-16 08:00N 51°53' E 004°18'0 0.0
2017-Jun-16 07:30N 51°53' E 004°18'0 0.0
2017-Jun-16 07:00N 51°53' E 004°18'0 0.0
2017-Jun-16 06:30N 51°53' E 004°18'0 0.0
2017-Jun-16 06:00N 51°53' E 004°18'0 0.0
2017-Jun-16 05:30N 51°53' E 004°18'0 0.0
2017-Jun-16 05:00N 51°53' E 004°18'0 0.0
2017-Jun-16 04:30N 51°53' E 004°18'0 0.0
2017-Jun-16 04:00N 51°53' E 004°18'0 0.0
2017-Jun-16 03:30N 51°53' E 004°18'0 0.0
2017-Jun-16 03:00N 51°53' E 004°18'0 0.0
2017-Jun-16 02:30N 51°53' E 004°18'0 0.0
2017-Jun-16 02:00N 51°53' E 004°18'0 0.0
2017-Jun-16 01:30N 51°53' E 004°18'0 0.0
2017-Jun-16 01:00N 51°53' E 004°18'0 0.0
2017-Jun-16 00:30N 51°53' E 004°18'0 0.0
2017-Jun-16 00:00N 51°53' E 004°18'0 0.0
2017-Jun-15 23:30N 51°53' E 004°18'0 0.0
2017-Jun-15 22:59N 51°53' E 004°18'0 0.0
2017-Jun-15 22:30N 51°53' E 004°18'0 0.0
2017-Jun-15 22:00N 51°53' E 004°18'0 0.0
2017-Jun-15 21:30N 51°53' E 004°18'0 0.0
2017-Jun-15 21:00N 51°53' E 004°18'0 0.0
2017-Jun-15 20:30N 51°53' E 004°18'0 0.0
2017-Jun-15 20:00N 51°53' E 004°18'0 0.0
2017-Jun-15 19:30N 51°53' E 004°18'0 0.0
2017-Jun-15 19:00N 51°53' E 004°18'0 0.0
2017-Jun-15 18:30N 51°53' E 004°18'0 0.0
2017-Jun-15 18:00N 51°53' E 004°18'0 0.0
2017-Jun-15 17:30N 51°53' E 004°18'0 0.0
2017-Jun-15 17:00N 51°53' E 004°18'0 0.0
2017-Jun-15 16:30N 51°53' E 004°18'0 0.0
2017-Jun-15 16:00N 51°53' E 004°18'0 0.0
2017-Jun-15 15:30N 51°53' E 004°18'0 0.0
2017-Jun-15 15:00N 51°53' E 004°18'0 0.0
2017-Jun-15 14:00N 51°53' E 004°18'0 0.0
2017-Jun-15 13:30N 51°53' E 004°18'0 0.0
2017-Jun-15 13:00N 51°53' E 004°18'0 0.0
2017-Jun-15 12:30N 51°53' E 004°18'0 0.0
2017-Jun-15 12:00N 51°53' E 004°18'0 0.0
2017-Jun-15 11:30N 51°53' E 004°18'0 0.0
2017-Jun-15 11:00N 51°53' E 004°18'0 0.0
2017-Jun-15 10:30N 51°53' E 004°18'0 0.0
2017-Jun-15 10:00N 51°53' E 004°18'0 0.0
2017-Jun-15 09:30N 51°53' E 004°18'0 0.0
2017-Jun-15 08:58N 51°53' E 004°18'0 0.0
2017-Jun-15 08:28N 51°53' E 004°18'0 0.0
2017-Jun-15 07:58N 51°53' E 004°18'0 0.0
2017-Jun-15 07:28N 51°53' E 004°18'0 0.0
2017-Jun-15 07:00N 51°53' E 004°18'0 0.0
2017-Jun-15 06:30N 51°53' E 004°18'0 0.0
2017-Jun-15 06:00N 51°53' E 004°18'0 0.0
2017-Jun-15 05:30N 51°53' E 004°18'0 0.0
2017-Jun-15 05:00N 51°53' E 004°18'0 0.0
2017-Jun-15 04:30N 51°53' E 004°18'0 0.0
2017-Jun-15 04:00N 51°53' E 004°18'0 0.0
2017-Jun-15 03:29N 51°53' E 004°18'0 0.0
2017-Jun-15 02:59N 51°53' E 004°18'0 0.0
2017-Jun-15 02:29N 51°53' E 004°18'0 0.0
2017-Jun-15 01:59N 51°53' E 004°18'0 0.0
2017-Jun-15 01:29N 51°53' E 004°18'0 0.0
2017-Jun-15 00:58N 51°53' E 004°18'0 0.0
2017-Jun-15 00:28N 51°53' E 004°18'0 0.0
2017-Jun-15 00:00N 51°53' E 004°18'0 0.0
2017-Jun-14 23:30N 51°53' E 004°18'0 0.0
2017-Jun-14 23:00N 51°53' E 004°18'0 0.0
2017-Jun-14 22:30N 51°53' E 004°18'0 0.0
2017-Jun-14 22:00N 51°53' E 004°18'0 0.0
2017-Jun-14 21:30N 51°53' E 004°18'0 0.0
2017-Jun-14 21:00N 51°53' E 004°18'0 0.0
2017-Jun-14 20:29N 51°53' E 004°18'0 0.0
2017-Jun-14 19:59N 51°53' E 004°18'0 0.0
2017-Jun-14 19:29N 51°53' E 004°18'0 0.0
2017-Jun-14 18:58N 51°53' E 004°18'0 0.0
2017-Jun-14 18:28N 51°53' E 004°18'0 0.0
2017-Jun-14 17:58N 51°53' E 004°18'0 0.0
2017-Jun-14 17:30N 51°53' E 004°18'0 0.0
2017-Jun-14 17:00N 51°53' E 004°18'0 0.0
2017-Jun-14 16:29N 51°53' E 004°18'0 0.0
2017-Jun-14 15:59N 51°53' E 004°18'0 0.0
2017-Jun-14 15:29N 51°53' E 004°18'0 0.0
2017-Jun-14 14:59N 51°53' E 004°18'0 0.0
2017-Jun-14 13:58N 51°53' E 004°18'0 0.0
2017-Jun-14 13:28N 51°53' E 004°18'0 0.0
2017-Jun-14 13:00N 51°53' E 004°18'0 0.0
2017-Jun-14 12:30N 51°53' E 004°18'0 0.0
2017-Jun-14 12:00N 51°53' E 004°18'0 0.0
2017-Jun-14 11:30N 51°53' E 004°18'0 0.0
2017-Jun-14 11:00N 51°53' E 004°18'0 0.0
2017-Jun-14 10:29N 51°53' E 004°18'0 0.0
2017-Jun-14 10:00N 51°53' E 004°18'0 0.0
2017-Jun-14 09:29N 51°53' E 004°18'0 0.0
2017-Jun-14 09:00N 51°53' E 004°18'0 0.0
2017-Jun-14 08:30N 51°53' E 004°18'0 0.0
2017-Jun-14 07:59N 51°53' E 004°18'0 0.0
2017-Jun-14 07:29N 51°53' E 004°18'0 0.0
2017-Jun-14 06:59N 51°53' E 004°18'0 0.0
2017-Jun-14 06:26N 51°53' E 004°18'0 0.0
2017-Jun-14 05:58N 51°53' E 004°18'0 0.0
2017-Jun-14 05:28N 51°53' E 004°18'0 0.0
2017-Jun-14 04:55N 51°53' E 004°18'0 0.0
2017-Jun-14 04:30N 51°53' E 004°18'0 0.0
2017-Jun-14 04:00N 51°53' E 004°18'0 0.0
2017-Jun-14 03:30N 51°53' E 004°18'0 0.0
2017-Jun-14 03:00N 51°53' E 004°18'0 0.0
2017-Jun-14 02:30N 51°53' E 004°18'0 0.0
2017-Jun-14 01:57N 51°53' E 004°18'0 0.0
2017-Jun-14 01:30N 51°53' E 004°18'0 0.0
2017-Jun-14 00:59N 51°53' E 004°18'0 0.0
2017-Jun-14 00:29N 51°53' E 004°18'0 0.0
2017-Jun-13 23:59N 51°53' E 004°18'0 0.0
2017-Jun-13 23:29N 51°53' E 004°18'0 0.0
2017-Jun-13 22:58N 51°53' E 004°18'0 0.0
2017-Jun-13 22:28N 51°53' E 004°18'0 0.0
2017-Jun-13 21:58N 51°53' E 004°18'0 0.0
2017-Jun-13 21:31N 51°53' E 004°18'0 0.0
2017-Jun-13 21:00N 51°53' E 004°18'0 0.0
2017-Jun-13 20:30N 51°53' E 004°18'0 0.0
2017-Jun-13 20:00N 51°53' E 004°18'0 0.0
2017-Jun-13 19:30N 51°53' E 004°18'0 0.0
2017-Jun-13 19:00N 51°53' E 004°18'0 0.0
2017-Jun-13 18:30N 51°53' E 004°18'0 0.0
2017-Jun-13 17:59N 51°53' E 004°18'0 0.0
2017-Jun-13 17:26N 51°53' E 004°18'  
Track history (hours):
 
Tides and Currents Weather Stations Pressure Air Temp Water Temp Dewpoint Dewpoint Depression Visibility Wind Speed Wind Dir Waves Ship Positions

Pride Of Bruges

Operator: P&O Ferries

Last reported at 2017-Jun-23 17:00 UTC. Time now 2017-Jun-23 17:24 UTC.
Position N 51°33' E 003°07'.

Length 180 m; draft 5.4 m.

Type: Passenger vessel. MMSI: 244387000.

Date/timePositionNaut miles runAvg speedWind from/ knotsBaromVisibWave heightAir tempDewpointWater temp
2017-Jun-23 17:00N 51°33' E 003°07'612.3
2017-Jun-23 16:30N 51°39' E 003°11'612.2
2017-Jun-23 16:00N 51°44' E 003°14'612.2
2017-Jun-23 15:29N 51°50' E 003°18'1427.6
2017-Jun-23 14:59N 52°03' E 003°28'0 0.0
2017-Jun-23 13:59N 52°03' E 003°28'712.7
2017-Jun-23 13:24N 52°03' E 003°40'4 9.1
2017-Jun-23 13:00N 52°02' E 003°46'510.3
2017-Jun-23 12:30N 52°03' E 003°54'4 7.8
2017-Jun-23 12:00N 52°01' E 003°60'510.4
2017-Jun-23 11:30N 51°59' E 004°07'5 9.8
2017-Jun-23 11:00N 51°56' E 004°14'4 7.1
2017-Jun-23 10:30N 51°53' E 004°18'0 0.1
2017-Jun-23 10:00N 51°53' E 004°18'0 0.0
2017-Jun-23 09:29N 51°53' E 004°18'0 0.0
2017-Jun-23 08:59N 51°53' E 004°18'0 0.0
2017-Jun-23 08:30N 51°53' E 004°18'0 0.0
2017-Jun-23 07:59N 51°53' E 004°18'0 0.0
2017-Jun-23 07:30N 51°53' E 004°18'0 0.0
2017-Jun-23 07:00N 51°53' E 004°18'0 0.0
2017-Jun-23 06:30N 51°53' E 004°18'0 0.0
2017-Jun-23 06:00N 51°53' E 004°18'0 0.0
2017-Jun-23 05:30N 51°53' E 004°18'0 0.0
2017-Jun-23 05:00N 51°53' E 004°18'0 0.0
2017-Jun-23 04:30N 51°53' E 004°18'0 0.0
2017-Jun-23 04:00N 51°53' E 004°18'0 0.0
2017-Jun-23 03:30N 51°53' E 004°18'0 0.0
2017-Jun-23 03:00N 51°53' E 004°18'0 0.0
2017-Jun-23 02:30N 51°53' E 004°18'0 0.0
2017-Jun-23 02:00N 51°53' E 004°18'0 0.0
2017-Jun-23 01:30N 51°53' E 004°18'0 0.0
2017-Jun-23 01:00N 51°53' E 004°18'0 0.0
2017-Jun-23 00:30N 51°53' E 004°18'0 0.0
2017-Jun-23 00:00N 51°53' E 004°18'0 0.0
2017-Jun-22 23:29N 51°53' E 004°18'0 0.0
2017-Jun-22 23:00N 51°53' E 004°18'0 0.0
2017-Jun-22 22:30N 51°53' E 004°18'0 0.0
2017-Jun-22 22:00N 51°53' E 004°18'0 0.0
2017-Jun-22 21:30N 51°53' E 004°18'0 0.0
2017-Jun-22 21:00N 51°53' E 004°18'0 0.0
2017-Jun-22 20:30N 51°53' E 004°18'0 0.0
2017-Jun-22 20:00N 51°53' E 004°18'0 0.0
2017-Jun-22 19:29N 51°53' E 004°18'0 0.0
2017-Jun-22 19:00N 51°53' E 004°18'0 0.0
2017-Jun-22 18:30N 51°53' E 004°18'0 0.0
2017-Jun-22 18:00N 51°53' E 004°18'0 0.0
2017-Jun-22 17:30N 51°53' E 004°18'0 0.0
2017-Jun-22 16:59N 51°53' E 004°18'0 0.0
2017-Jun-22 16:30N 51°53' E 004°18'0 0.0
2017-Jun-22 16:00N 51°53' E 004°18'0 0.0
2017-Jun-22 15:30N 51°53' E 004°18'0 0.0
2017-Jun-22 14:59N 51°53' E 004°18'0 0.0
2017-Jun-22 13:59N 51°53' E 004°18'0 0.0
2017-Jun-22 13:30N 51°53' E 004°18'0 0.0
2017-Jun-22 13:00N 51°53' E 004°18'0 0.0
2017-Jun-22 12:30N 51°53' E 004°18'0 0.0
2017-Jun-22 12:00N 51°53' E 004°18'0 0.0
2017-Jun-22 11:30N 51°53' E 004°18'0 0.0
2017-Jun-22 11:00N 51°53' E 004°18'0 0.0
2017-Jun-22 10:30N 51°53' E 004°18'0 0.0
2017-Jun-22 10:00N 51°53' E 004°18'0 0.0
2017-Jun-22 09:30N 51°53' E 004°18'0 0.0
2017-Jun-22 09:00N 51°53' E 004°18'0 0.0
2017-Jun-22 08:30N 51°53' E 004°18'0 0.0
2017-Jun-22 08:00N 51°53' E 004°18'0 0.0
2017-Jun-22 07:30N 51°53' E 004°18'0 0.0
2017-Jun-22 07:00N 51°53' E 004°18'0 0.0
2017-Jun-22 06:30N 51°53' E 004°18'0 0.0
2017-Jun-22 06:00N 51°53' E 004°18'0 0.0
2017-Jun-22 05:30N 51°53' E 004°18'0 0.0
2017-Jun-22 05:00N 51°53' E 004°18'0 0.0
2017-Jun-22 04:30N 51°53' E 004°18'0 0.0
2017-Jun-22 04:00N 51°53' E 004°18'0 0.0
2017-Jun-22 03:30N 51°53' E 004°18'0 0.0
2017-Jun-22 03:00N 51°53' E 004°18'0 0.0
2017-Jun-22 02:30N 51°53' E 004°18'0 0.0
2017-Jun-22 02:00N 51°53' E 004°18'0 0.0
2017-Jun-22 01:30N 51°53' E 004°18'0 0.0
2017-Jun-22 01:00N 51°53' E 004°18'0 0.0
2017-Jun-22 00:30N 51°53' E 004°18'0 0.0
2017-Jun-22 00:00N 51°53' E 004°18'0 0.0
2017-Jun-21 23:30N 51°53' E 004°18'0 0.0
2017-Jun-21 23:00N 51°53' E 004°18'0 0.0
2017-Jun-21 22:30N 51°53' E 004°18'0 0.0
2017-Jun-21 22:00N 51°53' E 004°18'0 0.0
2017-Jun-21 21:30N 51°53' E 004°18'0 0.0
2017-Jun-21 21:00N 51°53' E 004°18'0 0.0
2017-Jun-21 20:30N 51°53' E 004°18'0 0.0
2017-Jun-21 20:00N 51°53' E 004°18'0 0.0
2017-Jun-21 19:30N 51°53' E 004°18'0 0.0
2017-Jun-21 19:00N 51°53' E 004°18'0 0.0
2017-Jun-21 18:30N 51°53' E 004°18'0 0.0
2017-Jun-21 18:00N 51°53' E 004°18'0 0.0
2017-Jun-21 17:30N 51°53' E 004°18'0 0.0
2017-Jun-21 17:00N 51°53' E 004°18'0 0.0
2017-Jun-21 16:30N 51°53' E 004°18'0 0.0
2017-Jun-21 16:00N 51°53' E 004°18'0 0.0
2017-Jun-21 15:30N 51°53' E 004°18'0 0.0
2017-Jun-21 15:00N 51°53' E 004°18'0 0.0
2017-Jun-21 14:30N 51°53' E 004°18'0 0.0
2017-Jun-21 13:30N 51°53' E 004°18'0 0.0
2017-Jun-21 13:00N 51°53' E 004°18'0 0.0
2017-Jun-21 12:30N 51°53' E 004°18'0 0.0
2017-Jun-21 12:00N 51°53' E 004°18'0 0.0
2017-Jun-21 11:30N 51°53' E 004°18'0 0.0
2017-Jun-21 11:00N 51°53' E 004°18'0 0.0
2017-Jun-21 10:30N 51°53' E 004°18'0 0.0
2017-Jun-21 10:00N 51°53' E 004°18'0 0.0
2017-Jun-21 09:30N 51°53' E 004°18'0 0.0
2017-Jun-21 09:00N 51°53' E 004°18'0 0.0
2017-Jun-21 08:30N 51°53' E 004°18'0 0.0
2017-Jun-21 08:00N 51°53' E 004°18'0 0.0
2017-Jun-21 07:30N 51°53' E 004°18'0 0.0
2017-Jun-21 07:00N 51°53' E 004°18'0 0.0
2017-Jun-21 06:30N 51°53' E 004°18'0 0.0
2017-Jun-21 06:00N 51°53' E 004°18'0 0.0
2017-Jun-21 05:30N 51°53' E 004°18'0 0.0
2017-Jun-21 05:00N 51°53' E 004°18'0 0.0
2017-Jun-21 04:30N 51°53' E 004°18'0 0.0
2017-Jun-21 04:00N 51°53' E 004°18'0 0.0
2017-Jun-21 03:30N 51°53' E 004°18'0 0.0
2017-Jun-21 03:00N 51°53' E 004°18'0 0.0
2017-Jun-21 02:30N 51°53' E 004°18'0 0.0
2017-Jun-21 02:00N 51°53' E 004°18'0 0.0
2017-Jun-21 01:30N 51°53' E 004°18'0 0.0
2017-Jun-21 01:00N 51°53' E 004°18'0 0.0
2017-Jun-21 00:30N 51°53' E 004°18'0 0.0
2017-Jun-21 00:00N 51°53' E 004°18'0 0.0
2017-Jun-20 23:30N 51°53' E 004°18'0 0.0
2017-Jun-20 23:00N 51°53' E 004°18'0 0.0
2017-Jun-20 22:30N 51°53' E 004°18'0 0.0
2017-Jun-20 22:00N 51°53' E 004°18'0 0.0
2017-Jun-20 21:30N 51°53' E 004°18'0 0.0
2017-Jun-20 21:00N 51°53' E 004°18'0 0.0
2017-Jun-20 20:30N 51°53' E 004°18'0 0.0
2017-Jun-20 20:00N 51°53' E 004°18'0 0.0
2017-Jun-20 19:30N 51°53' E 004°18'0 0.0
2017-Jun-20 19:00N 51°53' E 004°18'0 0.0
2017-Jun-20 18:30N 51°53' E 004°18'0 0.0
2017-Jun-20 18:00N 51°53' E 004°18'0 0.0
2017-Jun-20 17:30N 51°53' E 004°18'0 0.0
2017-Jun-20 17:00N 51°53' E 004°18'0 0.0
2017-Jun-20 16:30N 51°53' E 004°18'0 0.0
2017-Jun-20 16:00N 51°53' E 004°18'0 0.0
2017-Jun-20 15:30N 51°53' E 004°18'0 0.0
2017-Jun-20 15:00N 51°53' E 004°18'0 0.0
2017-Jun-20 14:30N 51°53' E 004°18'0 0.0
2017-Jun-20 13:30N 51°53' E 004°18'0 0.0
2017-Jun-20 13:00N 51°53' E 004°18'0 0.0
2017-Jun-20 12:30N 51°53' E 004°18'0 0.0
2017-Jun-20 12:00N 51°53' E 004°18'0 0.0
2017-Jun-20 11:30N 51°53' E 004°18'0 0.0
2017-Jun-20 11:00N 51°53' E 004°18'0 0.0
2017-Jun-20 10:30N 51°53' E 004°18'0 0.0
2017-Jun-20 10:00N 51°53' E 004°18'0 0.0
2017-Jun-20 09:30N 51°53' E 004°18'0 0.0
2017-Jun-20 09:00N 51°53' E 004°18'0 0.0
2017-Jun-20 08:30N 51°53' E 004°18'0 0.0
2017-Jun-20 08:00N 51°53' E 004°18'0 0.0
2017-Jun-20 07:30N 51°53' E 004°18'0 0.0
2017-Jun-20 07:00N 51°53' E 004°18'0 0.0
2017-Jun-20 06:30N 51°53' E 004°18'0 0.0
2017-Jun-20 06:00N 51°53' E 004°18'0 0.0
2017-Jun-20 05:30N 51°53' E 004°18'0 0.0
2017-Jun-20 05:00N 51°53' E 004°18'0 0.0
2017-Jun-20 04:30N 51°53' E 004°18'0 0.0
2017-Jun-20 04:00N 51°53' E 004°18'0 0.0
2017-Jun-20 03:30N 51°53' E 004°18'0 0.0
2017-Jun-20 03:00N 51°53' E 004°18'0 0.0
2017-Jun-20 02:30N 51°53' E 004°18'0 0.0
2017-Jun-20 02:00N 51°53' E 004°18'0 0.0
2017-Jun-20 01:30N 51°53' E 004°18'0 0.0
2017-Jun-20 01:00N 51°53' E 004°18'0 0.0
2017-Jun-20 00:30N 51°53' E 004°18'0 0.0
2017-Jun-20 00:00N 51°53' E 004°18'0 0.0
2017-Jun-19 23:30N 51°53' E 004°18'0 0.0
2017-Jun-19 23:00N 51°53' E 004°18'0 0.0
2017-Jun-19 22:30N 51°53' E 004°18'0 0.0
2017-Jun-19 22:00N 51°53' E 004°18'0 0.0
2017-Jun-19 21:30N 51°53' E 004°18'0 0.0
2017-Jun-19 21:00N 51°53' E 004°18'0 0.0
2017-Jun-19 20:30N 51°53' E 004°18'0 0.0
2017-Jun-19 20:00N 51°53' E 004°18'0 0.0
2017-Jun-19 19:30N 51°53' E 004°18'0 0.0
2017-Jun-19 19:00N 51°53' E 004°18'0 0.0
2017-Jun-19 18:30N 51°53' E 004°18'0 0.0
2017-Jun-19 18:00N 51°53' E 004°18'0 0.0
2017-Jun-19 17:30N 51°53' E 004°18'0 0.0
2017-Jun-19 17:00N 51°53' E 004°18'0 0.0
2017-Jun-19 16:30N 51°53' E 004°18'0 0.0
2017-Jun-19 16:00N 51°53' E 004°18'0 0.0
2017-Jun-19 15:30N 51°53' E 004°18'0 0.0
2017-Jun-19 15:00N 51°53' E 004°18'0 0.0
2017-Jun-19 14:30N 51°53' E 004°18'0 0.0
2017-Jun-19 13:30N 51°53' E 004°18'0 0.0
2017-Jun-19 13:00N 51°53' E 004°18'0 0.0
2017-Jun-19 12:30N 51°53' E 004°18'0 0.0
2017-Jun-19 12:00N 51°53' E 004°18'0 0.0
2017-Jun-19 11:30N 51°53' E 004°18'0 0.0
2017-Jun-19 11:00N 51°53' E 004°18'0 0.0
2017-Jun-19 10:30N 51°53' E 004°18'0 0.0
2017-Jun-19 10:00N 51°53' E 004°18'0 0.0
2017-Jun-19 09:30N 51°53' E 004°18'0 0.0
2017-Jun-19 09:01N 51°53' E 004°18'0 0.0
2017-Jun-19 08:30N 51°53' E 004°18'0 0.0
2017-Jun-19 08:00N 51°53' E 004°18'0 0.0
2017-Jun-19 07:30N 51°53' E 004°18'0 0.0
2017-Jun-19 07:00N 51°53' E 004°18'0 0.0
2017-Jun-19 06:30N 51°53' E 004°18'0 0.0
2017-Jun-19 06:00N 51°53' E 004°18'0 0.0
2017-Jun-19 05:30N 51°53' E 004°18'0 0.0
2017-Jun-19 05:00N 51°53' E 004°18'0 0.0
2017-Jun-19 04:29N 51°53' E 004°18'0 0.0
2017-Jun-19 04:00N 51°53' E 004°18'0 0.0
2017-Jun-19 03:30N 51°53' E 004°18'0 0.0
2017-Jun-19 03:00N 51°53' E 004°18'0 0.0
2017-Jun-19 02:30N 51°53' E 004°18'0 0.0
2017-Jun-19 02:00N 51°53' E 004°18'0 0.0
2017-Jun-19 01:00N 51°53' E 004°18'0 0.0
2017-Jun-19 00:30N 51°53' E 004°18'0 0.0
2017-Jun-19 00:00N 51°53' E 004°18'0 0.0
2017-Jun-18 23:30N 51°53' E 004°18'0 0.0
2017-Jun-18 23:00N 51°53' E 004°18'0 0.0
2017-Jun-18 22:29N 51°53' E 004°18'0 0.0
2017-Jun-18 22:00N 51°53' E 004°18'0 0.0
2017-Jun-18 21:30N 51°53' E 004°18'0 0.0
2017-Jun-18 21:00N 51°53' E 004°18'0 0.0
2017-Jun-18 20:30N 51°53' E 004°18'0 0.0
2017-Jun-18 20:00N 51°53' E 004°18'0 0.0
2017-Jun-18 19:29N 51°53' E 004°18'0 0.0
2017-Jun-18 19:00N 51°53' E 004°18'0 0.0
2017-Jun-18 18:30N 51°53' E 004°18'0 0.0
2017-Jun-18 18:00N 51°53' E 004°18'0 0.0
2017-Jun-18 17:30N 51°53' E 004°18'0 0.0
2017-Jun-18 17:00N 51°53' E 004°18'0 0.0
2017-Jun-18 16:29N 51°53' E 004°18'0 0.0
2017-Jun-18 16:00N 51°53' E 004°18'0 0.0
2017-Jun-18 15:30N 51°53' E 004°18'0 0.0
2017-Jun-18 15:00N 51°53' E 004°18'0 0.0
2017-Jun-18 14:00N 51°53' E 004°18'0 0.0
2017-Jun-18 13:30N 51°53' E 004°18'0 0.0
2017-Jun-18 13:00N 51°53' E 004°18'0 0.0
2017-Jun-18 12:29N 51°53' E 004°18'0 0.0
2017-Jun-18 12:00N 51°53' E 004°18'0 0.0
2017-Jun-18 11:30N 51°53' E 004°18'0 0.0
2017-Jun-18 11:00N 51°53' E 004°18'0 0.0
2017-Jun-18 10:30N 51°53' E 004°18'0 0.0
2017-Jun-18 09:59N 51°53' E 004°18'0 0.0
2017-Jun-18 09:30N 51°53' E 004°18'0 0.0
2017-Jun-18 09:00N 51°53' E 004°18'0 0.0
2017-Jun-18 08:30N 51°53' E 004°18'0 0.0
2017-Jun-18 08:00N 51°53' E 004°18'0 0.0
2017-Jun-18 07:29N 51°53' E 004°18'0 0.0
2017-Jun-18 07:00N 51°53' E 004°18'0 0.0
2017-Jun-18 06:30N 51°53' E 004°18'0 0.0
2017-Jun-18 06:00N 51°53' E 004°18'0 0.0
2017-Jun-18 05:30N 51°53' E 004°18'0 0.0
2017-Jun-18 05:00N 51°53' E 004°18'0 0.0
2017-Jun-18 04:30N 51°53' E 004°18'0 0.0
2017-Jun-18 04:00N 51°53' E 004°18'0 0.0
2017-Jun-18 03:30N 51°53' E 004°18'0 0.0
2017-Jun-18 03:00N 51°53' E 004°18'0 0.0
2017-Jun-18 02:30N 51°53' E 004°18'0 0.0
2017-Jun-18 02:00N 51°53' E 004°18'0 0.0
2017-Jun-18 01:30N 51°53' E 004°18'0 0.0
2017-Jun-18 01:00N 51°53' E 004°18'0 0.0
2017-Jun-18 00:30N 51°53' E 004°18'0 0.0
2017-Jun-18 00:00N 51°53' E 004°18'0 0.0
2017-Jun-17 23:30N 51°53' E 004°18'0 0.0
2017-Jun-17 23:00N 51°53' E 004°18'0 0.0
2017-Jun-17 22:31N 51°53' E 004°18'0 0.0
2017-Jun-17 22:00N 51°53' E 004°18'0 0.0
2017-Jun-17 21:30N 51°53' E 004°18'0 0.0
2017-Jun-17 21:00N 51°53' E 004°18'0 0.0
2017-Jun-17 20:30N 51°53' E 004°18'0 0.0
2017-Jun-17 20:00N 51°53' E 004°18'0 0.0
2017-Jun-17 19:30N 51°53' E 004°18'0 0.0
2017-Jun-17 19:00N 51°53' E 004°18'0 0.0
2017-Jun-17 18:30N 51°53' E 004°18'0 0.0
2017-Jun-17 18:00N 51°53' E 004°18'0 0.0
2017-Jun-17 17:30N 51°53' E 004°18'0 0.0
2017-Jun-17 17:00N 51°53' E 004°18'0 0.0
2017-Jun-17 16:30N 51°53' E 004°18'0 0.0
2017-Jun-17 15:59N 51°53' E 004°18'0 0.0
2017-Jun-17 15:30N 51°53' E 004°18'0 0.0
2017-Jun-17 15:00N 51°53' E 004°18'0 0.0
2017-Jun-17 14:30N 51°53' E 004°18'0 0.0
2017-Jun-17 13:30N 51°53' E 004°18'0 0.0
2017-Jun-17 13:00N 51°53' E 004°18'0 0.0
2017-Jun-17 12:30N 51°53' E 004°18'0 0.0
2017-Jun-17 12:00N 51°53' E 004°18'0 0.0
2017-Jun-17 11:30N 51°53' E 004°18'0 0.0
2017-Jun-17 11:00N 51°53' E 004°18'0 0.0
2017-Jun-17 10:30N 51°53' E 004°18'0 0.0
2017-Jun-17 10:00N 51°53' E 004°18'0 0.0
2017-Jun-17 09:30N 51°53' E 004°18'0 0.0
2017-Jun-17 09:00N 51°53' E 004°18'0 0.0
2017-Jun-17 08:30N 51°53' E 004°18'0 0.0
2017-Jun-17 08:00N 51°53' E 004°18'0 0.0
2017-Jun-17 07:30N 51°53' E 004°18'0 0.0
2017-Jun-17 07:00N 51°53' E 004°18'0 0.0
2017-Jun-17 06:30N 51°53' E 004°18'0 0.0
2017-Jun-17 06:00N 51°53' E 004°18'0 0.0
2017-Jun-17 05:30N 51°53' E 004°18'0 0.0
2017-Jun-17 05:00N 51°53' E 004°18'0 0.0
2017-Jun-17 04:30N 51°53' E 004°18'0 0.0
2017-Jun-17 04:00N 51°53' E 004°18'0 0.0
2017-Jun-17 03:30N 51°53' E 004°18'0 0.0
2017-Jun-17 03:00N 51°53' E 004°18'0 0.0
2017-Jun-17 02:30N 51°53' E 004°18'0 0.0
2017-Jun-17 02:00N 51°53' E 004°18'0 0.0
2017-Jun-17 01:30N 51°53' E 004°18'0 0.0
2017-Jun-17 01:00N 51°53' E 004°18'0 0.0
2017-Jun-17 00:30N 51°53' E 004°18'0 0.0
2017-Jun-17 00:00N 51°53' E 004°18'0 0.0
2017-Jun-16 23:30N 51°53' E 004°18'0 0.0
2017-Jun-16 23:00N 51°53' E 004°18'0 0.0
2017-Jun-16 22:30N 51°53' E 004°18'0 0.0
2017-Jun-16 22:00N 51°53' E 004°18'0 0.0
2017-Jun-16 21:30N 51°53' E 004°18'0 0.0
2017-Jun-16 21:00N 51°53' E 004°18'0 0.0
2017-Jun-16 20:30N 51°53' E 004°18'0 0.0
2017-Jun-16 20:00N 51°53' E 004°18'0 0.0
2017-Jun-16 19:30N 51°53' E 004°18'0 0.0
2017-Jun-16 19:00N 51°53' E 004°18'0 0.0
2017-Jun-16 18:30N 51°53' E 004°18'0 0.0
2017-Jun-16 18:00N 51°53' E 004°18'0 0.0
2017-Jun-16 17:30N 51°53' E 004°18'0 0.0
2017-Jun-16 17:00N 51°53' E 004°18'0 0.0
2017-Jun-16 16:30N 51°53' E 004°18'0 0.0
2017-Jun-16 16:00N 51°53' E 004°18'0 0.0
2017-Jun-16 15:30N 51°53' E 004°18'0 0.0
2017-Jun-16 15:00N 51°53' E 004°18'0 0.0
2017-Jun-16 14:30N 51°53' E 004°18'0 0.0
2017-Jun-16 13:30N 51°53' E 004°18'0 0.0
2017-Jun-16 13:00N 51°53' E 004°18'0 0.0
2017-Jun-16 12:30N 51°53' E 004°18'0 0.0
2017-Jun-16 12:00N 51°53' E 004°18'0 0.0
2017-Jun-16 11:30N 51°53' E 004°18'0 0.0
2017-Jun-16 11:00N 51°53' E 004°18'0 0.0
2017-Jun-16 10:30N 51°53' E 004°18'0 0.0
2017-Jun-16 10:00N 51°53' E 004°18'0 0.0
2017-Jun-16 09:30N 51°53' E 004°18'0 0.0
2017-Jun-16 09:00N 51°53' E 004°18'0 0.0
2017-Jun-16 08:30N 51°53' E 004°18'0 0.0
2017-Jun-16 08:00N 51°53' E 004°18'0 0.0
2017-Jun-16 07:30N 51°53' E 004°18'0 0.0
2017-Jun-16 07:00N 51°53' E 004°18'0 0.0
2017-Jun-16 06:30N 51°53' E 004°18'0 0.0
2017-Jun-16 06:00N 51°53' E 004°18'0 0.0
2017-Jun-16 05:30N 51°53' E 004°18'0 0.0
2017-Jun-16 05:00N 51°53' E 004°18'0 0.0
2017-Jun-16 04:30N 51°53' E 004°18'0 0.0
2017-Jun-16 04:00N 51°53' E 004°18'0 0.0
2017-Jun-16 03:30N 51°53' E 004°18'0 0.0
2017-Jun-16 03:00N 51°53' E 004°18'0 0.0
2017-Jun-16 02:30N 51°53' E 004°18'0 0.0
2017-Jun-16 02:00N 51°53' E 004°18'0 0.0
2017-Jun-16 01:30N 51°53' E 004°18'0 0.0
2017-Jun-16 01:00N 51°53' E 004°18'0 0.0
2017-Jun-16 00:30N 51°53' E 004°18'0 0.0
2017-Jun-16 00:00N 51°53' E 004°18'0 0.0
2017-Jun-15 23:30N 51°53' E 004°18'0 0.0
2017-Jun-15 22:59N 51°53' E 004°18'0 0.0
2017-Jun-15 22:30N 51°53' E 004°18'0 0.0
2017-Jun-15 22:00N 51°53' E 004°18'0 0.0
2017-Jun-15 21:30N 51°53' E 004°18'0 0.0
2017-Jun-15 21:00N 51°53' E 004°18'0 0.0
2017-Jun-15 20:30N 51°53' E 004°18'0 0.0
2017-Jun-15 20:00N 51°53' E 004°18'0 0.0
2017-Jun-15 19:30N 51°53' E 004°18'0 0.0
2017-Jun-15 19:00N 51°53' E 004°18'0 0.0
2017-Jun-15 18:30N 51°53' E 004°18'0 0.0
2017-Jun-15 18:00N 51°53' E 004°18'0 0.0
2017-Jun-15 17:30N 51°53' E 004°18'0 0.0
2017-Jun-15 17:00N 51°53' E 004°18'0 0.0
2017-Jun-15 16:30N 51°53' E 004°18'0 0.0
2017-Jun-15 16:00N 51°53' E 004°18'0 0.0
2017-Jun-15 15:30N 51°53' E 004°18'0 0.0
2017-Jun-15 15:00N 51°53' E 004°18'0 0.0
2017-Jun-15 14:00N 51°53' E 004°18'0 0.0
2017-Jun-15 13:30N 51°53' E 004°18'0 0.0
2017-Jun-15 13:00N 51°53' E 004°18'0 0.0
2017-Jun-15 12:30N 51°53' E 004°18'0 0.0
2017-Jun-15 12:00N 51°53' E 004°18'0 0.0
2017-Jun-15 11:30N 51°53' E 004°18'0 0.0
2017-Jun-15 11:00N 51°53' E 004°18'0 0.0
2017-Jun-15 10:30N 51°53' E 004°18'0 0.0
2017-Jun-15 10:00N 51°53' E 004°18'0 0.0
2017-Jun-15 09:30N 51°53' E 004°18'0 0.0
2017-Jun-15 08:58N 51°53' E 004°18'0 0.0
2017-Jun-15 08:28N 51°53' E 004°18'0 0.0
2017-Jun-15 07:58N 51°53' E 004°18'0 0.0
2017-Jun-15 07:28N 51°53' E 004°18'0 0.0
2017-Jun-15 07:00N 51°53' E 004°18'0 0.0
2017-Jun-15 06:30N 51°53' E 004°18'0 0.0
2017-Jun-15 06:00N 51°53' E 004°18'0 0.0
2017-Jun-15 05:30N 51°53' E 004°18'0 0.0
2017-Jun-15 05:00N 51°53' E 004°18'0 0.0
2017-Jun-15 04:30N 51°53' E 004°18'0 0.0
2017-Jun-15 04:00N 51°53' E 004°18'0 0.0
2017-Jun-15 03:29N 51°53' E 004°18'0 0.0
2017-Jun-15 02:59N 51°53' E 004°18'0 0.0
2017-Jun-15 02:29N 51°53' E 004°18'0 0.0
2017-Jun-15 01:59N 51°53' E 004°18'0 0.0
2017-Jun-15 01:29N 51°53' E 004°18'0 0.0
2017-Jun-15 00:58N 51°53' E 004°18'0 0.0
2017-Jun-15 00:28N 51°53' E 004°18'0 0.0
2017-Jun-15 00:00N 51°53' E 004°18'0 0.0
2017-Jun-14 23:30N 51°53' E 004°18'0 0.0
2017-Jun-14 23:00N 51°53' E 004°18'0 0.0
2017-Jun-14 22:30N 51°53' E 004°18'0 0.0
2017-Jun-14 22:00N 51°53' E 004°18'0 0.0
2017-Jun-14 21:30N 51°53' E 004°18'0 0.0
2017-Jun-14 21:00N 51°53' E 004°18'0 0.0
2017-Jun-14 20:29N 51°53' E 004°18'0 0.0
2017-Jun-14 19:59N 51°53' E 004°18'0 0.0
2017-Jun-14 19:29N 51°53' E 004°18'0 0.0
2017-Jun-14 18:58N 51°53' E 004°18'0 0.0
2017-Jun-14 18:28N 51°53' E 004°18'0 0.0
2017-Jun-14 17:58N 51°53' E 004°18'0 0.0
2017-Jun-14 17:30N 51°53' E 004°18'0 0.0
2017-Jun-14 17:00N 51°53' E 004°18'0 0.0
2017-Jun-14 16:29N 51°53' E 004°18'0 0.0
2017-Jun-14 15:59N 51°53' E 004°18'0 0.0
2017-Jun-14 15:29N 51°53' E 004°18'0 0.0
2017-Jun-14 14:59N 51°53' E 004°18'0 0.0
2017-Jun-14 13:58N 51°53' E 004°18'0 0.0
2017-Jun-14 13:28N 51°53' E 004°18'0 0.0
2017-Jun-14 13:00N 51°53' E 004°18'0 0.0
2017-Jun-14 12:30N 51°53' E 004°18'0 0.0
2017-Jun-14 12:00N 51°53' E 004°18'0 0.0
2017-Jun-14 11:30N 51°53' E 004°18'0 0.0
2017-Jun-14 11:00N 51°53' E 004°18'0 0.0
2017-Jun-14 10:29N 51°53' E 004°18'0 0.0
2017-Jun-14 10:00N 51°53' E 004°18'0 0.0
2017-Jun-14 09:29N 51°53' E 004°18'0 0.0
2017-Jun-14 09:00N 51°53' E 004°18'0 0.0
2017-Jun-14 08:30N 51°53' E 004°18'0 0.0
2017-Jun-14 07:59N 51°53' E 004°18'0 0.0
2017-Jun-14 07:29N 51°53' E 004°18'0 0.0
2017-Jun-14 06:59N 51°53' E 004°18'0 0.0
2017-Jun-14 06:26N 51°53' E 004°18'0 0.0
2017-Jun-14 05:58N 51°53' E 004°18'0 0.0
2017-Jun-14 05:28N 51°53' E 004°18'0 0.0
2017-Jun-14 04:55N 51°53' E 004°18'0 0.0
2017-Jun-14 04:30N 51°53' E 004°18'0 0.0
2017-Jun-14 04:00N 51°53' E 004°18'0 0.0
2017-Jun-14 03:30N 51°53' E 004°18'0 0.0
2017-Jun-14 03:00N 51°53' E 004°18'0 0.0
2017-Jun-14 02:30N 51°53' E 004°18'0 0.0
2017-Jun-14 01:57N 51°53' E 004°18'0 0.0
2017-Jun-14 01:30N 51°53' E 004°18'0 0.0
2017-Jun-14 00:59N 51°53' E 004°18'0 0.0
2017-Jun-14 00:29N 51°53' E 004°18'0 0.0
2017-Jun-13 23:59N 51°53' E 004°18'0 0.0
2017-Jun-13 23:29N 51°53' E 004°18'0 0.0
2017-Jun-13 22:58N 51°53' E 004°18'0 0.0
2017-Jun-13 22:28N 51°53' E 004°18'0 0.0
2017-Jun-13 21:58N 51°53' E 004°18'0 0.0
2017-Jun-13 21:31N 51°53' E 004°18'0 0.0
2017-Jun-13 21:00N 51°53' E 004°18'0 0.0
2017-Jun-13 20:30N 51°53' E 004°18'0 0.0
2017-Jun-13 20:00N 51°53' E 004°18'0 0.0
2017-Jun-13 19:30N 51°53' E 004°18'0 0.0
2017-Jun-13 19:00N 51°53' E 004°18'0 0.0
2017-Jun-13 18:30N 51°53' E 004°18'0 0.0
2017-Jun-13 17:59N 51°53' E 004°18'0 0.0
2017-Jun-13 17:26N 51°53' E 004°18'  

Dump ship's entire track history